Time;durP1;ratioP1;P1;durP2;ratioP2;P2;SDS_P1;SDS_P2;PMS_P1;PMS_P2;Temp;Humidity;BMP_temperature;BMP_pressure;BME280_temperature;BME280_humidity;BME280_pressure;Samples;Min_cycle;Max_cycle;Signal;HPM_P1;HPM_P2
2021/05/12 00:02:23;;;;;;;5.60;4.47;;;15.20;99.90;;;;;;4962226;28;20619;-79
2021/05/12 00:04:48;;;;;;;7.57;3.95;;;15.10;99.90;;;;;;4979035;28;20214;-79
2021/05/12 00:07:14;;;;;;;6.10;4.37;;;15.10;99.90;;;;;;4947492;28;20551;-79
2021/05/12 00:09:40;;;;;;;5.90;4.73;;;15.00;99.90;;;;;;4981757;28;20180;-79
2021/05/12 00:12:07;;;;;;;5.17;3.90;;;15.00;99.90;;;;;;4977941;28;20200;-77
2021/05/12 00:14:35;;;;;;;5.28;4.28;;;15.00;99.90;;;;;;4975225;28;20211;-77
2021/05/12 00:17:03;;;;;;;7.28;4.82;;;15.00;99.90;;;;;;4977083;28;20218;-78
2021/05/12 00:19:29;;;;;;;5.38;4.57;;;14.90;99.90;;;;;;4977123;28;20587;-78
2021/05/12 00:22:11;;;;;;;6.57;4.68;;;14.90;99.90;;;;;;4990001;23;20278;-75
2021/05/12 00:24:38;;;;;;;6.85;5.18;;;14.90;99.90;;;;;;4977359;28;20246;-78
2021/05/12 00:27:05;;;;;;;7.05;4.70;;;14.80;99.90;;;;;;4976283;28;20176;-77
2021/05/12 00:29:30;;;;;;;7.13;4.97;;;14.80;99.90;;;;;;4976932;28;20187;-77
2021/05/12 00:31:56;;;;;;;6.10;5.00;;;14.80;99.90;;;;;;4927705;28;20188;-78
2021/05/12 00:34:22;;;;;;;7.10;5.47;;;14.80;99.90;;;;;;4977302;28;20661;-77
2021/05/12 00:36:48;;;;;;;5.77;5.27;;;14.70;99.90;;;;;;4977040;28;20579;-77
2021/05/12 00:39:13;;;;;;;9.93;5.90;;;14.70;99.90;;;;;;4959690;28;20182;-77
2021/05/12 00:41:41;;;;;;;6.97;5.33;;;14.70;99.90;;;;;;4976638;28;20195;-76
2021/05/12 00:44:27;;;;;;;5.38;4.88;;;14.60;99.90;;;;;;4959300;28;20187;-77
2021/05/12 00:47:01;;;;;;;5.20;4.47;;;14.60;99.90;;;;;;4941970;28;20210;-77
2021/05/12 00:49:26;;;;;;;5.47;4.80;;;14.60;99.90;;;;;;4958638;28;20180;-76
2021/05/12 00:51:52;;;;;;;7.90;5.67;;;14.60;99.90;;;;;;4959184;28;20202;-77
2021/05/12 00:54:18;;;;;;;6.00;5.07;;;14.50;99.90;;;;;;4959785;28;20675;-77
2021/05/12 00:56:44;;;;;;;7.87;6.63;;;14.50;99.90;;;;;;4977262;28;20187;-77
2021/05/12 00:59:10;;;;;;;7.17;6.57;;;14.50;99.90;;;;;;4959385;28;20215;-76
2021/05/12 01:01:37;;;;;;;6.95;6.07;;;14.50;99.90;;;;;;4957901;28;20687;-77
2021/05/12 01:04:07;;;;;;;9.50;6.63;;;14.50;99.90;;;;;;4957930;28;20484;-76
2021/05/12 01:06:36;;;;;;;8.20;7.50;;;14.40;99.90;;;;;;4957504;28;20179;-77
2021/05/12 01:09:04;;;;;;;7.53;6.60;;;14.50;99.90;;;;;;4957771;28;20175;-77
2021/05/12 01:11:30;;;;;;;9.57;7.40;;;14.50;99.90;;;;;;4974804;28;20238;-77
2021/05/12 01:13:56;;;;;;;7.90;6.70;;;14.50;99.90;;;;;;4941614;28;20215;-77
2021/05/12 01:16:22;;;;;;;8.20;7.50;;;14.50;99.90;;;;;;4974423;28;20579;-76
2021/05/12 01:18:48;;;;;;;7.10;6.37;;;14.50;99.90;;;;;;4974792;28;21204;-76
2021/05/12 01:21:14;;;;;;;9.90;7.07;;;14.50;99.90;;;;;;4957227;28;20598;-76
2021/05/12 01:23:44;;;;;;;8.15;7.35;;;14.40;99.90;;;;;;4974566;28;20571;-76
2021/05/12 01:26:30;;;;;;;8.05;6.82;;;14.50;99.90;;;;;;4956796;28;20172;-77
2021/05/12 01:28:56;;;;;;;8.73;7.07;;;14.40;99.90;;;;;;4956940;28;20198;-78
2021/05/12 01:31:23;;;;;;;8.27;7.45;;;14.50;99.90;;;;;;4957357;28;20188;-78
2021/05/12 01:33:51;;;;;;;9.43;7.03;;;14.50;99.90;;;;;;4974660;28;20349;-77
2021/05/12 01:36:19;;;;;;;9.88;7.80;;;14.50;99.90;;;;;;4956988;28;20175;-77
2021/05/12 01:38:46;;;;;;;7.40;6.70;;;14.50;99.90;;;;;;4956934;28;20171;-77
2021/05/12 01:41:13;;;;;;;8.35;7.28;;;14.60;99.90;;;;;;4956844;28;20250;-77
2021/05/12 01:43:39;;;;;;;8.40;6.95;;;14.70;99.90;;;;;;4974501;28;20184;-77
2021/05/12 01:46:05;;;;;;;8.43;7.68;;;14.70;99.90;;;;;;4957120;28;20164;-77
2021/05/12 01:48:32;;;;;;;7.70;7.00;;;14.70;99.90;;;;;;4956652;28;20644;-76
2021/05/12 01:50:58;;;;;;;8.18;6.82;;;14.80;99.90;;;;;;4974338;28;20571;-76
2021/05/12 01:53:25;;;;;;;10.00;7.90;;;14.80;99.90;;;;;;4956814;28;20199;-76
2021/05/12 01:55:51;;;;;;;6.47;5.72;;;14.90;99.90;;;;;;4974214;28;20164;-76
2021/05/12 01:58:18;;;;;;;6.80;5.60;;;14.90;99.90;;;;;;4973834;28;20203;-77
2021/05/12 02:00:46;;;;;;;7.05;6.18;;;14.90;99.90;;;;;;4956661;28;20174;-77
2021/05/12 02:03:13;;;;;;;8.95;6.18;;;15.00;99.90;;;;;;4974031;28;20588;-75
2021/05/12 02:05:40;;;;;;;6.47;5.28;;;15.00;99.90;;;;;;4956845;28;20247;-76
2021/05/12 02:08:09;;;;;;;6.28;5.50;;;15.00;99.90;;;;;;4973496;28;20180;-76
2021/05/12 02:10:35;;;;;;;5.85;5.25;;;15.10;99.90;;;;;;4940588;28;20167;-77
2021/05/12 02:13:02;;;;;;;7.35;5.82;;;15.10;99.90;;;;;;4956408;28;20560;-77
2021/05/12 02:15:27;;;;;;;6.80;5.20;;;15.10;99.90;;;;;;4956461;28;20164;-77
2021/05/12 02:17:53;;;;;;;8.17;5.70;;;15.10;99.90;;;;;;4973361;28;20249;-77
2021/05/12 02:20:25;;;;;;;6.93;6.23;;;15.20;99.90;;;;;;4956426;28;20190;-77
2021/05/12 02:22:51;;;;;;;8.00;5.60;;;15.20;99.90;;;;;;4973459;28;20627;-77
2021/05/12 02:25:17;;;;;;;7.93;5.07;;;15.20;99.90;;;;;;4973512;28;20642;-76
2021/05/12 02:27:43;;;;;;;5.23;4.60;;;15.20;99.90;;;;;;4956110;28;20178;-76
2021/05/12 02:30:11;;;;;;;10.13;5.22;;;15.20;99.90;;;;;;4973553;28;20928;-76
2021/05/12 02:32:37;;;;;;;6.10;5.07;;;15.30;99.90;;;;;;4973104;28;20214;-77
2021/05/12 02:35:05;;;;;;;5.47;4.93;;;15.30;99.90;;;;;;4956139;28;20172;-78
2021/05/12 02:37:31;;;;;;;11.13;5.80;;;15.30;99.90;;;;;;4954832;28;20606;-76
2021/05/12 02:40:00;;;;;;;6.27;5.33;;;15.40;99.90;;;;;;4956006;28;20600;-76
2021/05/12 02:42:26;;;;;;;6.00;4.97;;;15.30;99.90;;;;;;4973048;28;20985;-77
2021/05/12 02:44:52;;;;;;;6.40;4.77;;;15.40;99.90;;;;;;4973148;28;20582;-77
2021/05/12 02:47:18;;;;;;;6.60;5.13;;;15.40;99.90;;;;;;4955513;28;20617;-76
2021/05/12 02:49:43;;;;;;;5.60;4.90;;;15.40;99.90;;;;;;4955574;28;20230;-76
2021/05/12 02:52:09;;;;;;;5.20;4.63;;;15.40;99.90;;;;;;4972646;28;20195;-77
2021/05/12 02:54:35;;;;;;;5.10;4.47;;;15.40;99.90;;;;;;4939659;28;20554;-78
2021/05/12 02:57:03;;;;;;;6.87;4.37;;;15.50;99.90;;;;;;4954863;28;20674;-77
2021/05/12 02:59:29;;;;;;;8.00;4.50;;;15.40;99.90;;;;;;4955535;28;21526;-76
2021/05/12 03:01:55;;;;;;;6.32;4.35;;;15.50;99.90;;;;;;4955717;28;20949;-77
2021/05/12 03:04:21;;;;;;;6.20;4.63;;;15.50;99.90;;;;;;4973128;28;20190;-76
2021/05/12 03:06:47;;;;;;;4.93;4.07;;;15.50;99.90;;;;;;4955191;28;20168;-76
2021/05/12 03:09:12;;;;;;;5.37;4.20;;;15.50;99.90;;;;;;4973027;28;20160;-77
2021/05/12 03:11:38;;;;;;;6.37;3.93;;;15.50;99.90;;;;;;4972789;28;20611;-78
2021/05/12 03:14:07;;;;;;;4.43;4.00;;;15.50;99.90;;;;;;4955787;28;20973;-77
2021/05/12 03:16:33;;;;;;;5.60;4.27;;;15.60;99.90;;;;;;4972486;28;20579;-77
2021/05/12 03:18:59;;;;;;;6.40;4.67;;;15.60;99.90;;;;;;4972865;28;20866;-75
2021/05/12 03:21:25;;;;;;;4.80;4.07;;;15.60;99.90;;;;;;4939205;28;20604;-77
2021/05/12 03:23:51;;;;;;;6.40;4.30;;;15.60;99.90;;;;;;4955521;28;20609;-77
2021/05/12 03:26:18;;;;;;;5.57;4.70;;;15.60;99.90;;;;;;4972509;28;20857;-77
2021/05/12 03:28:44;;;;;;;6.23;4.13;;;15.60;99.90;;;;;;4972538;28;20644;-77
2021/05/12 03:31:11;;;;;;;4.80;4.00;;;15.60;99.90;;;;;;4955469;28;20618;-76
2021/05/12 03:33:37;;;;;;;6.03;4.35;;;15.70;99.90;;;;;;4972735;28;20650;-77
2021/05/12 03:36:04;;;;;;;8.05;5.50;;;15.60;99.90;;;;;;4972642;28;20183;-77
2021/05/12 03:38:30;;;;;;;5.40;3.60;;;15.60;99.90;;;;;;4972184;28;20218;-77
2021/05/12 03:40:56;;;;;;;5.97;4.53;;;15.60;99.90;;;;;;4955158;28;20515;-77
2021/05/12 03:43:22;;;;;;;6.83;3.93;;;15.70;99.90;;;;;;4972449;28;20649;-77
2021/05/12 03:45:48;;;;;;;5.93;5.33;;;15.70;99.90;;;;;;4955369;28;20254;-77
2021/05/12 03:48:13;;;;;;;5.60;4.10;;;15.70;99.90;;;;;;4956630;28;20179;-77
2021/05/12 03:50:40;;;;;;;4.18;3.65;;;15.60;99.90;;;;;;4943206;28;20179;-76
2021/05/12 03:53:08;;;;;;;9.20;4.10;;;15.70;99.90;;;;;;4959275;28;20239;-77
2021/05/12 03:55:35;;;;;;;5.07;3.90;;;15.70;99.90;;;;;;4975960;28;20599;-77
2021/05/12 03:58:01;;;;;;;6.80;4.30;;;15.60;99.90;;;;;;4958594;28;20202;-76
2021/05/12 04:00:27;;;;;;;5.43;4.27;;;15.70;99.90;;;;;;4976351;28;20670;-76
2021/05/12 04:02:53;;;;;;;11.27;4.80;;;15.60;99.90;;;;;;4959151;28;21027;-77
2021/05/12 04:05:19;;;;;;;5.03;4.50;;;15.60;99.90;;;;;;4958804;28;20602;-76
2021/05/12 04:07:44;;;;;;;7.63;5.10;;;15.60;99.90;;;;;;4942538;28;20175;-77
2021/05/12 04:10:10;;;;;;;6.07;4.67;;;15.60;99.90;;;;;;4959028;28;20586;-77
2021/05/12 04:12:37;;;;;;;8.95;4.90;;;15.60;99.90;;;;;;4958584;28;20207;-78
2021/05/12 04:15:05;;;;;;;6.55;4.30;;;15.60;99.90;;;;;;4958690;28;20164;-78
2021/05/12 04:17:31;;;;;;;7.57;4.67;;;15.60;99.90;;;;;;4942097;28;20226;-77
2021/05/12 04:19:57;;;;;;;6.37;5.27;;;15.60;99.90;;;;;;4975850;28;20579;-77
2021/05/12 04:22:23;;;;;;;5.87;4.77;;;15.60;99.90;;;;;;4975610;28;20619;-76
2021/05/12 04:24:49;;;;;;;5.47;4.97;;;15.60;99.90;;;;;;4958812;28;20524;-77
2021/05/12 04:27:17;;;;;;;6.38;5.40;;;15.60;99.90;;;;;;4975767;28;20172;-77
2021/05/12 04:29:43;;;;;;;6.30;5.50;;;15.60;99.90;;;;;;4958862;28;20171;-77
2021/05/12 04:32:08;;;;;;;8.67;5.10;;;15.60;99.90;;;;;;4958271;28;20617;-77
2021/05/12 04:34:34;;;;;;;10.13;5.90;;;15.60;99.90;;;;;;4975483;28;20638;-77
2021/05/12 04:37:00;;;;;;;8.50;5.37;;;15.60;99.90;;;;;;4975321;28;20329;-77
2021/05/12 04:39:29;;;;;;;12.18;5.78;;;15.70;99.90;;;;;;4975526;28;20725;-77
2021/05/12 04:41:55;;;;;;;6.43;5.40;;;15.70;99.90;;;;;;4958078;28;20279;-77
2021/05/12 04:44:21;;;;;;;7.00;5.85;;;15.70;99.90;;;;;;4975461;28;20578;-77
2021/05/12 04:46:49;;;;;;;6.07;5.03;;;15.80;99.90;;;;;;4941937;28;20172;-77
2021/05/12 04:49:15;;;;;;;6.13;4.70;;;15.80;99.90;;;;;;4942150;28;20571;-77
2021/05/12 04:51:41;;;;;;;8.40;6.50;;;15.80;99.90;;;;;;4941991;28;20617;-78
2021/05/12 04:54:07;;;;;;;6.20;5.60;;;15.80;99.90;;;;;;4957994;28;20207;-77
2021/05/12 04:56:33;;;;;;;7.77;6.70;;;15.80;99.90;;;;;;4957502;28;20218;-77
2021/05/12 04:58:59;;;;;;;8.90;6.40;;;15.80;99.90;;;;;;4975224;28;20578;-77
2021/05/12 05:01:25;;;;;;;9.30;8.07;;;15.90;99.90;;;;;;4971304;28;20987;-77
2021/05/12 05:03:51;;;;;;;9.07;6.50;;;15.90;99.90;;;;;;4952928;28;20171;-77
2021/05/12 05:06:17;;;;;;;13.00;6.43;;;15.90;99.90;;;;;;4975003;28;20198;-77
2021/05/12 05:08:43;;;;;;;8.80;7.03;;;16.00;99.90;;;;;;4957801;28;20168;-77
2021/05/12 05:11:09;;;;;;;12.30;7.13;;;16.00;99.90;;;;;;4975163;28;20571;-77
2021/05/12 05:13:36;;;;;;;10.90;6.60;;;16.00;99.90;;;;;;4957705;28;21201;-75
2021/05/12 05:16:09;;;;;;;10.60;6.53;;;16.10;99.90;;;;;;4957745;28;21162;-76
2021/05/12 05:18:36;;;;;;;10.63;5.80;;;16.10;99.90;;;;;;4957257;28;20575;-76
2021/05/12 05:21:04;;;;;;;8.60;6.87;;;16.20;99.90;;;;;;4974969;28;20571;-76
2021/05/12 05:23:32;;;;;;;8.57;5.75;;;16.20;99.90;;;;;;4957402;28;20637;-76
2021/05/12 05:25:57;;;;;;;7.57;5.80;;;16.30;99.90;;;;;;4975052;28;20164;-77
2021/05/12 05:28:23;;;;;;;11.57;6.33;;;16.30;99.90;;;;;;4974121;28;20679;-76
2021/05/12 05:30:49;;;;;;;6.93;5.70;;;16.30;99.90;;;;;;4957468;28;20656;-76
2021/05/12 05:33:33;;;;;;;7.80;5.77;;;16.40;99.90;;;;;;4974865;28;20195;-76
2021/05/12 05:36:17;;;;;;;7.27;5.53;;;16.40;99.90;;;;;;4974515;28;20682;-77
2021/05/12 05:39:02;;;;;;;6.23;5.00;;;16.50;99.90;;;;;;4974911;28;20567;-77
2021/05/12 05:41:46;;;;;;;7.27;4.10;;;16.50;99.90;;;;;;4975061;28;20694;-78
2021/05/12 05:44:30;;;;;;;6.68;4.25;;;16.50;99.90;;;;;;4959686;28;20584;-79
2021/05/12 05:47:15;;;;;;;10.37;5.17;;;16.50;99.90;;;;;;4961561;29;20231;-79
2021/05/12 05:50:01;;;;;;;5.00;4.50;;;16.50;99.90;;;;;;4944016;29;21294;-79
2021/05/12 05:52:45;;;;;;;5.80;4.27;;;16.60;99.90;;;;;;4962740;28;20734;-79
2021/05/12 05:55:29;;;;;;;5.43;4.17;;;16.60;99.90;;;;;;4948145;29;20584;-79
2021/05/12 05:58:14;;;;;;;4.63;4.13;;;16.50;99.90;;;;;;4962822;29;20551;-80
2021/05/12 06:01:07;;;;;;;4.53;3.60;;;16.50;99.90;;;;;;4959382;28;20596;-80
2021/05/12 06:03:32;;;;;;;8.50;5.03;;;16.50;99.90;;;;;;4953203;29;20604;-79
2021/05/12 06:06:30;;;;;;;5.50;4.20;;;16.50;99.90;;;;;;4931699;29;20588;-80
2021/05/12 06:09:14;;;;;;;8.77;4.50;;;16.50;99.90;;;;;;4943387;29;20584;-80
2021/05/12 06:11:59;;;;;;;5.97;3.43;;;16.60;99.90;;;;;;4976910;28;20643;-79
2021/05/12 06:14:43;;;;;;;5.63;3.57;;;16.60;99.90;;;;;;4979266;28;20580;-80
2021/05/12 06:17:28;;;;;;;5.50;3.87;;;16.60;99.90;;;;;;4977844;28;20602;-80
2021/05/12 06:20:13;;;;;;;7.43;3.27;;;16.70;99.90;;;;;;4940756;29;20592;-81
2021/05/12 06:23:02;;;;;;;10.67;3.13;;;16.70;99.90;;;;;;4961408;28;20996;-78
2021/05/12 06:25:51;;;;;;;5.10;2.80;;;16.80;99.90;;;;;;4917931;29;20607;-77
2021/05/12 06:28:36;;;;;;;4.13;2.63;;;16.90;99.90;;;;;;4936904;29;20948;-77
2021/05/12 06:31:20;;;;;;;5.27;3.93;;;17.00;99.90;;;;;;4954521;28;20605;-76
2021/05/12 06:34:12;;;;;;;5.37;3.03;;;17.00;99.90;;;;;;4924505;29;20647;-78
2021/05/12 06:36:56;;;;;;;6.10;2.87;;;17.10;99.90;;;;;;4936655;29;20599;-77
2021/05/12 06:39:41;;;;;;;3.50;2.40;;;17.20;99.90;;;;;;4936895;29;20579;-76
2021/05/12 06:42:06;;;;;;;5.67;2.47;;;17.30;99.90;;;;;;4937012;29;20648;-77
2021/05/12 06:44:32;;;;;;;5.85;2.25;;;17.40;99.90;;;;;;4954169;29;20595;-77
2021/05/12 06:46:58;;;;;;;5.70;3.67;;;17.80;99.90;;;;;;4955229;29;20768;-76
2021/05/12 06:49:24;;;;;;;6.15;4.00;;;18.80;99.90;;;;;;4953560;29;20807;-77
2021/05/12 06:51:55;;;;;;;5.63;3.03;;;20.10;99.90;;;;;;4953121;28;20701;-79
2021/05/12 06:54:21;;;;;;;3.70;2.20;;;21.40;99.90;;;;;;4936602;29;20327;-77
2021/05/12 06:56:47;;;;;;;2.87;1.40;;;22.40;99.90;;;;;;4936362;29;20667;-78
2021/05/12 06:59:13;;;;;;;2.57;1.23;;;23.50;99.90;;;;;;4953278;29;20659;-78
2021/05/12 07:01:39;;;;;;;3.93;1.70;;;24.70;99.90;;;;;;4953465;29;20192;-77
2021/05/12 07:04:07;;;;;;;3.60;2.00;;;25.80;99.90;;;;;;4968141;28;20704;-77
2021/05/12 07:06:33;;;;;;;3.10;1.30;;;27.10;99.90;;;;;;4936309;29;20168;-78
2021/05/12 07:08:59;;;;;;;5.10;1.70;;;27.70;99.90;;;;;;4936589;29;20571;-77
2021/05/12 07:11:24;;;;;;;4.03;1.77;;;28.40;99.90;;;;;;4953612;29;20188;-77
2021/05/12 07:13:53;;;;;;;7.63;2.42;;;28.90;99.90;;;;;;4935651;29;20735;-78
2021/05/12 07:16:19;;;;;;;3.53;1.90;;;29.40;93.00;;;;;;4943312;29;20611;-77
2021/05/12 07:18:45;;;;;;;4.43;1.50;;;29.90;97.50;;;;;;4917168;29;20584;-77
2021/05/12 07:21:11;;;;;;;3.03;1.20;;;30.40;97.50;;;;;;4934249;29;20616;-77
2021/05/12 07:23:39;;;;;;;3.07;1.63;;;30.90;96.60;;;;;;4933913;29;20596;-77
2021/05/12 07:26:07;;;;;;;3.27;1.20;;;31.30;96.50;;;;;;4917199;29;20177;-76
2021/05/12 07:28:33;;;;;;;3.88;1.65;;;31.80;95.20;;;;;;4933325;29;20717;-76
2021/05/12 07:30:59;;;;;;;2.40;1.27;;;32.20;84.50;;;;;;4917183;29;20177;-76
2021/05/12 07:33:25;;;;;;;3.37;1.40;;;32.20;90.20;;;;;;4934104;29;20208;-76
2021/05/12 07:35:50;;;;;;;2.90;1.70;;;32.00;87.70;;;;;;4934240;29;20213;-76
2021/05/12 07:38:16;;;;;;;2.20;1.23;;;31.60;85.30;;;;;;4933955;29;20233;-76
2021/05/12 07:40:43;;;;;;;2.37;1.43;;;31.00;83.40;;;;;;4934153;29;20176;-77
2021/05/12 07:43:10;;;;;;;7.13;1.70;;;30.40;82.40;;;;;;4916994;29;21168;-76
2021/05/12 07:45:37;;;;;;;2.50;1.30;;;29.80;81.10;;;;;;4934079;29;20680;-77
2021/05/12 07:48:08;;;;;;;3.00;1.50;;;29.10;80.30;;;;;;4937910;29;20589;-76
2021/05/12 07:50:39;;;;;;;4.40;1.37;;;28.50;81.50;;;;;;4918597;29;20588;-77
2021/05/12 07:53:08;;;;;;;2.40;1.03;;;27.90;81.90;;;;;;4917078;29;20631;-77
2021/05/12 07:55:34;;;;;;;3.67;1.23;;;27.30;82.10;;;;;;4915677;29;20601;-77
2021/05/12 07:58:01;;;;;;;2.83;1.63;;;26.70;82.80;;;;;;4915803;29;20948;-77
2021/05/12 08:00:28;;;;;;;2.97;1.50;;;26.40;85.00;;;;;;4901619;29;21214;-77
2021/05/12 08:02:53;;;;;;;4.43;1.87;;;26.10;86.30;;;;;;4936406;29;21109;-77
2021/05/12 08:05:19;;;;;;;3.40;2.08;;;26.00;86.20;;;;;;4934393;29;20710;-77
2021/05/12 08:07:47;;;;;;;3.50;1.80;;;25.30;80.10;;;;;;4918814;29;20177;-77
2021/05/12 08:10:13;;;;;;;4.07;2.03;;;25.10;83.50;;;;;;4935983;29;20929;-77
2021/05/12 08:12:39;;;;;;;2.83;1.77;;;24.90;84.80;;;;;;4920529;29;20629;-77
2021/05/12 08:15:08;;;;;;;4.47;2.73;;;24.60;85.20;;;;;;4936189;29;20252;-77
2021/05/12 08:17:34;;;;;;;4.20;2.17;;;24.30;85.40;;;;;;4935815;29;20179;-77
2021/05/12 08:20:01;;;;;;;4.67;2.10;;;24.10;86.60;;;;;;4920442;29;20675;-78
2021/05/12 08:22:27;;;;;;;2.00;1.80;;;23.80;86.80;;;;;;4936420;29;20620;-77
2021/05/12 08:24:54;;;;;;;3.80;2.13;;;23.50;87.00;;;;;;4903355;29;20596;-78
2021/05/12 08:27:20;;;;;;;2.53;1.50;;;23.20;87.90;;;;;;4935095;29;20587;-77
2021/05/12 08:29:46;;;;;;;3.40;1.53;;;23.10;89.50;;;;;;4935098;29;21156;-77
2021/05/12 08:32:14;;;;;;;6.20;1.90;;;23.20;91.00;;;;;;4933908;29;20197;-77
2021/05/12 08:34:41;;;;;;;2.80;2.17;;;23.90;93.00;;;;;;4934111;29;21188;-77
2021/05/12 08:37:07;;;;;;;4.93;2.70;;;24.60;94.30;;;;;;4903771;29;21227;-77
2021/05/12 08:39:33;;;;;;;5.50;2.23;;;25.50;90.70;;;;;;4943208;29;20172;-76
2021/05/12 08:41:59;;;;;;;4.07;1.70;;;26.10;91.30;;;;;;4904397;29;20597;-76
2021/05/12 08:44:25;;;;;;;2.80;1.77;;;26.40;90.90;;;;;;4937223;29;20599;-77
2021/05/12 08:46:52;;;;;;;2.57;1.80;;;26.80;90.50;;;;;;4936863;29;20569;-76
2021/05/12 08:49:19;;;;;;;3.20;2.00;;;27.20;90.40;;;;;;4919960;29;20982;-77
2021/05/12 08:51:45;;;;;;;2.20;1.53;;;27.80;90.60;;;;;;4936745;29;20609;-77
2021/05/12 08:54:13;;;;;;;2.13;1.57;;;28.20;89.40;;;;;;4904062;29;20628;-77
2021/05/12 08:56:38;;;;;;;2.13;1.33;;;28.50;87.60;;;;;;4936629;29;20585;-76
2021/05/12 08:59:05;;;;;;;2.77;1.60;;;29.10;88.70;;;;;;4936716;29;20565;-75
2021/05/12 09:01:32;;;;;;;4.23;2.10;;;29.80;89.10;;;;;;4919679;29;20245;-76
2021/05/12 09:04:00;;;;;;;2.47;1.57;;;30.60;88.20;;;;;;4919637;29;21129;-76
2021/05/12 09:06:26;;;;;;;3.60;2.20;;;31.40;85.80;;;;;;4936624;29;20614;-76
2021/05/12 09:08:52;;;;;;;3.00;1.67;;;31.90;81.40;;;;;;4936507;29;20574;-77
2021/05/12 09:11:18;;;;;;;2.47;1.40;;;32.00;78.50;;;;;;4936620;29;20201;-76
2021/05/12 09:13:47;;;;;;;2.70;1.30;;;32.30;76.50;;;;;;4936799;29;20621;-76
2021/05/12 09:16:19;;;;;;;2.37;1.27;;;32.80;76.20;;;;;;4940182;29;20187;-77
2021/05/12 09:18:45;;;;;;;2.57;1.30;;;33.40;73.20;;;;;;4918720;29;20586;-77
2021/05/12 09:21:12;;;;;;;4.00;1.43;;;33.80;70.80;;;;;;4935677;29;20930;-78
2021/05/12 09:23:40;;;;;;;3.80;1.53;;;33.90;67.50;;;;;;4936127;29;20639;-78
2021/05/12 09:26:16;;;;;;;2.87;1.40;;;33.70;65.20;;;;;;4958799;28;20608;-77
2021/05/12 09:28:43;;;;;;;5.17;1.77;;;33.70;63.60;;;;;;4974361;28;20599;-77
2021/05/12 09:31:08;;;;;;;2.27;1.20;;;33.50;63.50;;;;;;4957253;28;20591;-77
2021/05/12 09:33:41;;;;;;;3.57;2.00;;;33.10;61.70;;;;;;4932047;28;20632;-77
2021/05/12 09:36:08;;;;;;;2.63;1.50;;;32.60;60.10;;;;;;4974564;28;20218;-76
2021/05/12 09:38:36;;;;;;;3.60;1.50;;;32.00;59.40;;;;;;4957027;28;20575;-76
2021/05/12 09:41:12;;;;;;;2.87;1.47;;;31.20;58.90;;;;;;4974033;28;21128;-76
2021/05/12 09:43:45;;;;;;;3.00;1.43;;;30.50;58.40;;;;;;4974008;28;20736;-76
2021/05/12 09:46:26;;;;;;;2.50;1.60;;;29.70;58.70;;;;;;4973544;28;20579;-77
2021/05/12 09:49:01;;;;;;;2.83;1.50;;;29.00;59.30;;;;;;4956890;28;20593;-76
2021/05/12 09:51:29;;;;;;;3.20;2.30;;;28.40;59.70;;;;;;4974100;28;20665;-76
2021/05/12 09:54:19;;;;;;;3.53;2.00;;;28.00;60.40;;;;;;4945458;28;20694;-77
2021/05/12 09:56:47;;;;;;;2.10;1.40;;;27.40;61.00;;;;;;4973636;28;20571;-77
2021/05/12 09:59:27;;;;;;;2.83;1.30;;;27.00;61.40;;;;;;4940856;28;20595;-78
2021/05/12 10:01:59;;;;;;;4.07;2.30;;;26.70;62.20;;;;;;4972674;28;21289;-77
2021/05/12 10:04:38;;;;;;;5.10;2.40;;;26.10;62.20;;;;;;4956750;28;20183;-77
2021/05/12 10:07:16;;;;;;;3.60;1.70;;;26.30;64.20;;;;;;4955985;28;21185;-77
2021/05/12 10:09:43;;;;;;;3.03;1.67;;;26.50;65.20;;;;;;4973769;28;20673;-77
2021/05/12 10:12:18;;;;;;;3.63;1.40;;;27.00;66.90;;;;;;4973162;28;20603;-76
2021/05/12 10:14:46;;;;;;;4.63;2.20;;;27.30;66.50;;;;;;4973741;28;20566;-77
2021/05/12 10:17:14;;;;;;;4.43;2.53;;;27.60;66.40;;;;;;4973308;28;21192;-76
2021/05/12 10:19:41;;;;;;;3.97;2.57;;;27.90;66.70;;;;;;4956356;28;20571;-77
2021/05/12 10:22:12;;;;;;;3.00;2.00;;;28.40;67.60;;;;;;4973023;28;20967;-77
2021/05/12 10:24:40;;;;;;;3.37;1.93;;;28.60;65.90;;;;;;4956240;28;20587;-77
2021/05/12 10:27:15;;;;;;;3.30;2.53;;;28.60;63.50;;;;;;4955597;28;20579;-77
2021/05/12 10:29:48;;;;;;;3.67;1.53;;;28.50;62.90;;;;;;4975500;28;20587;-76
2021/05/12 10:32:16;;;;;;;4.77;1.93;;;28.20;62.10;;;;;;4954658;28;21009;-76
2021/05/12 10:34:42;;;;;;;3.90;1.73;;;27.80;61.50;;;;;;4961535;28;20598;-76
2021/05/12 10:37:29;;;;;;;3.53;2.43;;;27.40;61.10;;;;;;4948718;28;20957;-76
2021/05/12 10:40:01;;;;;;;4.90;2.30;;;27.00;61.30;;;;;;4973399;28;20215;-76
2021/05/12 10:42:49;;;;;;;4.30;3.30;;;26.60;61.30;;;;;;4955992;28;20594;-76
2021/05/12 10:45:37;;;;;;;2.80;2.33;;;26.20;61.60;;;;;;4924121;28;21008;-78
2021/05/12 10:48:04;;;;;;;5.10;2.90;;;25.80;61.20;;;;;;4955321;28;20590;-77
2021/05/12 10:50:47;;;;;;;6.00;2.57;;;25.30;61.80;;;;;;4973208;28;20613;-77
2021/05/12 10:53:24;;;;;;;3.40;2.23;;;24.90;62.40;;;;;;4966391;28;20750;-77
2021/05/12 10:55:56;;;;;;;5.80;3.10;;;24.70;63.10;;;;;;4953730;29;20655;-77
2021/05/12 10:58:26;;;;;;;3.20;2.67;;;24.40;63.00;;;;;;4935396;29;20627;-77
2021/05/12 11:01:00;;;;;;;5.70;2.90;;;24.10;63.30;;;;;;4953655;29;21078;-78
2021/05/12 11:03:52;;;;;;;6.10;2.50;;;23.80;63.40;;;;;;4953571;29;20586;-77
2021/05/12 11:06:45;;;;;;;3.03;2.03;;;23.50;63.70;;;;;;4939405;29;20665;-77
2021/05/12 11:09:19;;;;;;;4.90;2.40;;;23.20;64.20;;;;;;4936303;29;21000;-77
2021/05/12 11:11:44;;;;;;;4.60;3.10;;;22.90;64.60;;;;;;4953400;28;20622;-77
2021/05/12 11:14:32;;;;;;;4.33;3.40;;;22.60;64.80;;;;;;4920263;29;20627;-77
2021/05/12 11:17:12;;;;;;;4.13;3.30;;;22.40;65.50;;;;;;4952926;29;20176;-77
2021/05/12 11:19:48;;;;;;;4.07;2.97;;;22.10;65.70;;;;;;4953363;29;20572;-77
2021/05/12 11:33:25;;;;;;;3.60;2.90;;;21.10;67.30;;;;;;4956509;28;20669;-77
2021/05/12 11:35:57;;;;;;;3.20;2.37;;;21.10;68.30;;;;;;4955166;28;20583;-77
2021/05/12 11:38:24;;;;;;;4.90;2.60;;;21.00;68.50;;;;;;4961404;28;20687;-77
2021/05/12 11:41:05;;;;;;;4.67;2.00;;;20.90;68.90;;;;;;4953056;29;20573;-77
2021/05/12 11:43:53;;;;;;;6.10;2.30;;;20.90;69.30;;;;;;4953063;29;20576;-77
2021/05/12 11:46:26;;;;;;;4.13;2.07;;;20.90;70.30;;;;;;4952920;29;20575;-77
2021/05/12 11:48:58;;;;;;;2.80;1.77;;;20.90;70.40;;;;;;4952874;29;20607;-76
2021/05/12 11:51:36;;;;;;;2.00;1.20;;;21.00;70.90;;;;;;4935975;29;20706;-77
2021/05/12 11:54:05;;;;;;;5.73;2.30;;;21.00;71.10;;;;;;4919686;29;20745;-77
2021/05/12 11:56:32;;;;;;;3.30;2.07;;;21.00;71.10;;;;;;4952566;29;20576;-77
2021/05/12 11:59:00;;;;;;;2.63;2.10;;;21.10;71.70;;;;;;4952549;29;20631;-77
2021/05/12 12:01:28;;;;;;;2.83;1.80;;;21.20;71.80;;;;;;4935638;29;20626;-77
2021/05/12 12:04:05;;;;;;;2.30;1.60;;;21.20;71.40;;;;;;4952901;29;20956;-77
2021/05/12 12:06:38;;;;;;;3.83;2.37;;;21.30;72.10;;;;;;4935363;29;20676;-77
2021/05/12 12:09:04;;;;;;;3.30;1.57;;;21.40;71.80;;;;;;4953366;28;20576;-77
2021/05/12 12:11:33;;;;;;;3.40;1.33;;;21.40;71.20;;;;;;4956591;28;20639;-76
2021/05/12 12:14:01;;;;;;;4.80;2.50;;;21.20;71.30;;;;;;4956318;29;21153;-76
2021/05/12 12:16:27;;;;;;;3.80;1.83;;;21.10;71.10;;;;;;4939057;29;20572;-77
2021/05/12 12:18:54;;;;;;;5.03;1.53;;;21.00;71.70;;;;;;4956202;29;20622;-76
2021/05/12 12:21:31;;;;;;;4.87;1.97;;;21.00;72.70;;;;;;4941330;29;21030;-76
2021/05/12 12:24:08;;;;;;;6.60;2.50;;;20.80;73.90;;;;;;4956360;29;20603;-76
2021/05/12 12:26:38;;;;;;;4.40;2.20;;;20.80;74.30;;;;;;4955957;29;20662;-76
2021/05/12 12:29:06;;;;;;;4.33;2.83;;;20.70;75.00;;;;;;4956086;29;20579;-77
2021/05/12 12:31:53;;;;;;;4.00;2.47;;;20.70;76.00;;;;;;4939026;29;20619;-77
2021/05/12 12:34:29;;;;;;;3.63;2.50;;;20.70;76.10;;;;;;4951008;28;20721;-78
2021/05/12 12:37:01;;;;;;;2.87;2.50;;;20.70;77.20;;;;;;4974990;28;20602;-77
2021/05/12 12:39:52;;;;;;;5.37;2.53;;;20.80;79.00;;;;;;4943736;29;20587;-76
2021/05/12 12:42:23;;;;;;;4.73;4.30;;;20.90;79.70;;;;;;4956116;28;20600;-76
2021/05/12 12:44:49;;;;;;;2.80;2.40;;;21.10;80.70;;;;;;4955755;29;20572;-77
2021/05/12 12:47:18;;;;;;;2.73;2.37;;;21.50;81.10;;;;;;4955475;29;20568;-75
2021/05/12 12:49:50;;;;;;;3.53;2.00;;;21.70;79.70;;;;;;4938573;29;20568;-76
2021/05/12 12:52:21;;;;;;;4.30;2.47;;;21.90;79.90;;;;;;4955621;28;21159;-76
2021/05/12 12:57:16;;;;;;;4.33;2.17;;;22.20;78.40;;;;;;4957609;29;20566;-76
2021/05/12 13:00:09;;;;;;;3.40;1.27;;;22.40;77.10;;;;;;4939220;29;20600;-76
2021/05/12 13:02:36;;;;;;;5.40;1.73;;;22.60;77.70;;;;;;4955551;28;20971;-77
2021/05/12 13:05:17;;;;;;;6.90;1.70;;;22.70;76.80;;;;;;4955477;29;21133;-77
2021/05/12 13:07:44;;;;;;;2.67;1.93;;;22.70;74.20;;;;;;4922068;29;20572;-76
2021/05/12 13:10:32;;;;;;;2.80;1.43;;;22.80;75.40;;;;;;4937916;29;20666;-75
2021/05/12 13:12:58;;;;;;;2.70;1.30;;;22.70;74.20;;;;;;4954902;28;20654;-76
2021/05/12 13:15:38;;;;;;;2.17;1.10;;;22.70;74.00;;;;;;4955344;29;20568;-75